Harmony, North Carolina
Current Conditions -  °F | °C
As of 2:15 PM on Friday 21 Nov 2014 (Local Time) from KSVH Reporting Station
Clear Clear  
Wind Chill: 50°   Ceiling: Unl
Heat Index: 50°   Visibility: 10mi
Dew Point: 13°   Wind: 0mph
Humidity: 23%   Direction: NA
Pressure: 30.38"   Gusts: NA
Location:  35.96°N, 80.77°W
Report Text: KSVH 211915Z AUTO 00000KT 10SM CLR 10/M10 A3038 RMK AO2 T01021103
Loading
Personal Weather Stations






























Interactive Weather Map New forecast layout! Learn more

10-Day Weather Forecast

Advertisements
Track Severe Weather on mobile